createdAt,value
2019-05-28T00:01:25.890Z,19.27
2019-05-28T00:03:57.982Z,22.62
2019-05-28T00:06:30.240Z,23.12
2019-05-28T00:09:02.060Z,21.70
2019-05-28T00:11:35.402Z,21.50
2019-05-28T00:14:08.190Z,16.27
2019-05-28T00:16:40.362Z,22.02
2019-05-28T00:19:11.898Z,15.95
2019-05-28T00:21:43.846Z,13.55
2019-05-28T00:24:16.087Z,19.02
2019-05-28T00:26:50.090Z,12.13
2019-05-28T00:29:21.536Z,14.75
2019-05-28T00:31:53.803Z,12.10
2019-05-28T00:34:25.379Z,14.75
2019-05-28T00:36:56.778Z,20.77
2019-05-28T00:39:29.172Z,14.03
2019-05-28T00:42:01.210Z,21.68
2019-05-28T00:44:33.365Z,15.18
2019-05-28T00:47:06.107Z,17.67
2019-05-28T00:49:38.853Z,13.10
2019-05-28T00:52:10.765Z,18.07
2019-05-28T00:54:44.078Z,16.23
2019-05-28T00:57:16.825Z,13.05
2019-05-28T00:59:50.566Z,15.55
2019-05-28T01:02:21.618Z,17.65
2019-05-28T01:04:54.311Z,13.98
2019-05-28T01:07:27.442Z,22.85
2019-05-28T01:09:58.972Z,14.93
2019-05-28T01:12:31.022Z,16.50
2019-05-28T01:15:02.662Z,16.42
2019-05-28T01:17:35.481Z,14.38
2019-05-28T01:20:08.414Z,16.42
2019-05-28T01:22:41.756Z,15.28
2019-05-28T01:25:16.785Z,16.87
2019-05-28T01:27:48.852Z,18.42
2019-05-28T01:30:22.003Z,12.88
2019-05-28T01:32:54.927Z,15.32
2019-05-28T01:35:26.499Z,16.67
2019-05-28T01:37:58.651Z,15.63
2019-05-28T01:40:31.680Z,15.28
2019-05-28T01:43:04.424Z,14.80
2019-05-28T01:45:35.579Z,17.30
2019-05-28T01:48:07.324Z,13.53
2019-05-28T01:50:41.235Z,16.93
2019-05-28T01:53:13.208Z,13.28
2019-05-28T01:55:45.321Z,14.87
2019-05-28T01:58:16.977Z,12.98
2019-05-28T02:00:48.386Z,18.07
2019-05-28T02:03:20.297Z,14.10
2019-05-28T02:05:53.468Z,13.93
2019-05-28T02:08:24.632Z,16.77
2019-05-28T02:10:56.267Z,14.75
2019-05-28T02:13:29.225Z,14.18
2019-05-28T02:16:00.987Z,15.48
2019-05-28T02:18:32.773Z,17.05
2019-05-28T02:21:06.665Z,15.50
2019-05-28T02:23:39.176Z,14.05
2019-05-28T02:26:10.421Z,16.57
2019-05-28T02:28:41.881Z,18.27
2019-05-28T02:31:26.838Z,15.78
2019-05-28T02:33:47.869Z,15.10
2019-05-28T02:36:21.288Z,18.23
2019-05-28T02:38:52.584Z,16.57
2019-05-28T02:41:24.104Z,17.10
2019-05-28T02:43:55.848Z,14.53
2019-05-28T02:46:27.780Z,15.05
2019-05-28T02:48:59.782Z,15.60
2019-05-28T02:51:32.190Z,14.80
2019-05-28T02:54:04.683Z,16.35
2019-05-28T02:56:37.054Z,14.15
2019-05-28T02:59:12.020Z,16.30
2019-05-28T03:01:45.528Z,15.65
2019-05-28T03:04:18.668Z,18.77
2019-05-28T03:06:53.503Z,14.83
2019-05-28T03:09:26.706Z,17.42
2019-05-28T03:11:57.881Z,16.65
2019-05-28T03:14:30.182Z,17.92
2019-05-28T03:17:04.747Z,16.90
2019-05-28T03:19:39.220Z,17.20
2019-05-28T03:22:12.948Z,16.02
2019-05-28T03:24:47.825Z,17.15
2019-05-28T03:27:19.719Z,17.27
2019-05-28T03:29:51.341Z,18.60
2019-05-28T03:32:23.429Z,16.95
2019-05-28T03:34:55.208Z,19.07
2019-05-28T03:37:29.558Z,16.27
2019-05-28T03:40:04.610Z,18.07
2019-05-28T03:42:35.918Z,16.07
2019-05-28T03:45:08.299Z,17.35
2019-05-28T03:47:40.304Z,17.98
2019-05-28T03:50:13.518Z,17.20
2019-05-28T03:52:45.265Z,15.58
2019-05-28T03:55:16.683Z,15.20
2019-05-28T03:57:48.740Z,17.65
2019-05-28T04:00:23.251Z,17.82
2019-05-28T04:02:55.235Z,16.60
2019-05-28T04:05:27.935Z,17.07
2019-05-28T04:07:59.481Z,16.75
2019-05-28T04:10:30.981Z,19.02
2019-05-28T04:13:02.984Z,19.35
2019-05-28T04:15:36.073Z,17.00
2019-05-28T04:18:08.027Z,15.50
2019-05-28T04:20:40.583Z,17.02
2019-05-28T04:23:15.212Z,15.80
2019-05-28T04:25:48.140Z,20.65
2019-05-28T04:28:19.835Z,18.50
2019-05-28T04:30:51.444Z,18.50
2019-05-28T04:33:23.223Z,16.87
2019-05-28T04:35:55.283Z,18.15
2019-05-28T04:38:27.016Z,18.70
2019-05-28T04:40:59.160Z,16.85
2019-05-28T04:43:30.784Z,18.37
2019-05-28T04:46:03.312Z,17.62
2019-05-28T04:48:36.566Z,17.50
2019-05-28T04:51:07.897Z,17.75
2019-05-28T04:53:39.342Z,17.65
2019-05-28T04:56:11.665Z,18.77
2019-05-28T04:58:45.486Z,19.62
2019-05-28T05:01:17.452Z,18.55
2019-05-28T05:03:49.628Z,19.02
2019-05-28T05:06:20.901Z,21.40
2019-05-28T05:08:53.339Z,18.52
2019-05-28T05:11:24.928Z,18.10
2019-05-28T05:13:56.773Z,19.85
2019-05-28T05:16:29.042Z,18.45
2019-05-28T05:19:00.789Z,18.55
2019-05-28T05:21:35.544Z,20.50
2019-05-28T05:24:05.896Z,19.82
2019-05-28T05:26:37.153Z,18.55
2019-05-28T05:29:08.862Z,18.40
2019-05-28T05:31:41.230Z,18.92
2019-05-28T05:34:12.878Z,21.27
2019-05-28T05:36:45.405Z,19.73
2019-05-28T05:39:19.892Z,18.85
2019-05-28T05:41:52.266Z,18.67
2019-05-28T05:44:23.690Z,18.87
2019-05-28T05:46:55.849Z,19.02
2019-05-28T05:49:28.332Z,19.87
2019-05-28T05:51:59.826Z,19.75
2019-05-28T05:54:31.629Z,20.02
2019-05-28T05:57:04.590Z,18.32
2019-05-28T05:59:36.029Z,16.60
2019-05-28T06:02:07.609Z,20.25
2019-05-28T06:04:39.130Z,19.80
2019-05-28T06:07:11.191Z,19.25
2019-05-28T06:09:42.664Z,18.30
2019-05-28T06:12:14.555Z,17.60
2019-05-28T06:14:45.534Z,19.20
2019-05-28T06:17:18.503Z,16.82
2019-05-28T06:19:49.721Z,17.87
2019-05-28T06:22:24.738Z,16.70
2019-05-28T06:24:57.922Z,18.12
2019-05-28T06:27:31.000Z,19.05
2019-05-28T06:30:03.542Z,20.10
2019-05-28T06:32:37.601Z,19.55
2019-05-28T06:35:29.932Z,21.82
2019-05-28T06:38:02.920Z,18.30
2019-05-28T06:40:35.333Z,18.27
2019-05-28T06:43:08.490Z,19.00
2019-05-28T06:45:40.311Z,18.42
2019-05-28T06:48:12.017Z,18.15
2019-05-28T06:50:44.528Z,16.55
2019-05-28T06:53:16.608Z,16.50
2019-05-28T06:55:48.140Z,16.25
2019-05-28T06:58:35.665Z,14.70
2019-05-28T07:00:54.929Z,18.15
2019-05-28T07:03:27.209Z,18.15
2019-05-28T07:06:07.077Z,17.73
2019-05-28T07:08:32.319Z,17.23
2019-05-28T07:11:04.607Z,17.65
2019-05-28T07:13:36.894Z,17.42
2019-05-28T07:16:08.214Z,14.63
2019-05-28T07:18:39.704Z,16.82
2019-05-28T07:21:12.061Z,15.18
2019-05-28T07:23:44.145Z,15.43
2019-05-28T07:26:16.257Z,14.40
2019-05-28T07:28:48.225Z,13.60
2019-05-28T07:31:19.960Z,13.40
2019-05-28T07:33:51.210Z,11.83
2019-05-28T07:36:23.176Z,13.08
2019-05-28T07:38:54.550Z,12.47
2019-05-28T07:41:28.232Z,10.95
2019-05-28T07:43:59.882Z,12.18
2019-05-28T07:46:33.135Z,12.98
2019-05-28T07:49:05.636Z,10.85
2019-05-28T07:51:38.274Z,8.95
2019-05-28T07:54:10.392Z,9.10
2019-05-28T07:56:42.197Z,11.20
2019-05-28T07:59:14.629Z,8.78
2019-05-28T08:01:46.524Z,8.53
2019-05-28T08:04:18.367Z,7.47
2019-05-28T08:06:54.860Z,7.95
2019-05-28T08:09:24.881Z,7.03
2019-05-28T08:11:56.875Z,8.10
2019-05-28T08:14:29.488Z,8.63
2019-05-28T08:17:00.663Z,8.35
2019-05-28T08:19:32.718Z,8.00
2019-05-28T08:22:04.635Z,7.85
2019-05-28T08:24:37.144Z,7.58
2019-05-28T08:27:09.037Z,10.20
2019-05-28T08:29:40.740Z,8.88
2019-05-28T08:32:13.045Z,8.38
2019-05-28T08:34:45.369Z,9.45
2019-05-28T08:37:17.338Z,7.45
2019-05-28T08:39:50.111Z,9.68
2019-05-28T08:42:22.318Z,7.87
2019-05-28T08:44:54.986Z,9.43
2019-05-28T08:47:27.074Z,10.98
2019-05-28T08:49:59.578Z,8.83
2019-05-28T08:52:32.146Z,8.73
2019-05-28T08:55:05.000Z,7.58
2019-05-28T08:57:37.465Z,8.53
2019-05-28T09:00:11.805Z,9.38
2019-05-28T09:02:43.135Z,8.78
2019-05-28T09:05:25.948Z,8.73
2019-05-28T09:07:47.890Z,8.93
2019-05-28T09:10:20.435Z,9.43
2019-05-28T09:12:51.577Z,9.28
2019-05-28T09:15:24.148Z,8.93
2019-05-28T09:17:57.214Z,10.10
2019-05-28T09:20:29.249Z,10.23
2019-05-28T09:23:01.700Z,9.40
2019-05-28T09:25:33.988Z,10.98
2019-05-28T09:28:07.190Z,10.48
2019-05-28T09:30:39.715Z,10.60
2019-05-28T09:33:11.578Z,10.78
2019-05-28T09:35:55.921Z,10.50
2019-05-28T09:38:17.911Z,10.70
2019-05-28T09:40:52.640Z,12.90
2019-05-28T09:43:25.231Z,11.65
2019-05-28T09:45:56.724Z,11.65
2019-05-28T09:48:28.611Z,15.83
2019-05-28T09:51:03.445Z,11.28
2019-05-28T09:53:35.398Z,12.23
2019-05-28T09:56:08.049Z,12.37
2019-05-28T09:58:39.748Z,13.50
2019-05-28T10:01:11.428Z,13.90
2019-05-28T10:03:44.490Z,13.40
2019-05-28T10:06:18.057Z,14.15
2019-05-28T10:08:49.278Z,13.58
2019-05-28T10:11:20.959Z,13.50
2019-05-28T10:13:54.142Z,13.98
2019-05-28T10:16:26.477Z,13.43
2019-05-28T10:18:58.198Z,13.78
2019-05-28T10:21:29.855Z,14.73
2019-05-28T10:24:05.785Z,12.82
2019-05-28T10:26:39.791Z,14.05
2019-05-28T10:29:11.925Z,14.35
2019-05-28T10:31:56.379Z,12.68
2019-05-28T10:34:34.095Z,11.65
2019-05-28T10:37:11.464Z,13.50
2019-05-28T10:39:54.177Z,13.08
2019-05-28T10:42:31.121Z,11.63
2019-05-28T10:45:02.872Z,10.40
2019-05-28T10:47:33.869Z,11.40
2019-05-28T10:50:40.227Z,10.55
2019-05-28T10:53:13.311Z,12.95
2019-05-28T10:55:46.284Z,16.20
2019-05-28T10:58:18.831Z,12.75
2019-05-28T11:00:53.506Z,14.13
2019-05-28T11:03:26.477Z,14.03
2019-05-28T11:06:00.043Z,12.68
2019-05-28T11:08:32.182Z,12.50
2019-05-28T11:11:04.028Z,11.15
2019-05-28T11:13:49.922Z,11.25
2019-05-28T11:16:10.189Z,10.55
2019-05-28T11:18:41.467Z,10.88
2019-05-28T11:21:13.357Z,10.53
2019-05-28T11:23:45.335Z,10.38
2019-05-28T11:26:17.418Z,8.95
2019-05-28T11:28:49.939Z,8.55
2019-05-28T11:31:21.489Z,7.92
2019-05-28T11:33:53.922Z,7.60
2019-05-28T11:36:25.849Z,7.20
2019-05-28T11:38:57.668Z,6.42
2019-05-28T11:41:41.566Z,6.55
2019-05-28T11:44:02.824Z,9.50
2019-05-28T11:46:34.944Z,7.40
2019-05-28T11:49:07.176Z,6.70
2019-05-28T11:51:39.609Z,5.95
2019-05-28T11:54:12.109Z,7.85
2019-05-28T11:56:43.886Z,6.65
2019-05-28T11:59:15.765Z,4.42
2019-05-28T12:01:48.034Z,4.22
2019-05-28T12:04:21.297Z,3.72
2019-05-28T12:06:54.120Z,3.40
2019-05-28T12:09:26.758Z,3.95
2019-05-28T12:12:00.138Z,3.50
2019-05-28T12:14:32.461Z,4.00
2019-05-28T12:17:04.208Z,5.87
2019-05-28T12:19:35.908Z,4.22
2019-05-28T12:22:08.446Z,6.70
2019-05-28T12:24:41.051Z,4.65
2019-05-28T12:27:14.391Z,4.12
2019-05-28T12:29:51.772Z,3.72
2019-05-28T12:32:20.337Z,3.65
2019-05-28T12:34:52.060Z,3.50
2019-05-28T12:37:24.465Z,4.28
2019-05-28T12:39:56.254Z,4.33
2019-05-28T12:42:27.649Z,3.75
2019-05-28T12:45:09.300Z,4.62
2019-05-28T12:47:34.300Z,4.70
2019-05-28T12:50:19.075Z,5.35
2019-05-28T12:52:46.714Z,3.87
2019-05-28T12:55:28.889Z,4.35
2019-05-28T12:58:07.877Z,3.70
2019-05-28T13:00:41.176Z,5.92
2019-05-28T13:03:13.674Z,4.80
2019-05-28T13:05:46.165Z,5.00
2019-05-28T13:08:20.441Z,10.15
2019-05-28T13:10:52.710Z,4.10
2019-05-28T13:13:24.959Z,4.70
2019-05-28T13:15:57.477Z,5.80
2019-05-28T13:18:30.538Z,5.33
2019-05-28T13:21:02.421Z,5.47
2019-05-28T13:23:34.380Z,4.60
2019-05-28T13:26:06.437Z,5.08
2019-05-28T13:28:38.594Z,4.97
2019-05-28T13:31:11.832Z,4.75
2019-05-28T13:33:44.257Z,5.65
2019-05-28T13:36:15.813Z,5.25
2019-05-28T13:38:47.804Z,4.25
2019-05-28T13:41:20.052Z,4.10
2019-05-28T13:43:52.840Z,4.17
2019-05-28T13:46:25.592Z,8.35
2019-05-28T13:48:57.980Z,4.90
2019-05-28T13:51:30.248Z,3.80
2019-05-28T13:54:04.500Z,4.42
2019-05-28T13:56:37.287Z,4.40
2019-05-28T13:59:08.542Z,6.25
2019-05-28T14:01:40.302Z,5.97
2019-05-28T14:04:15.476Z,4.95
2019-05-28T14:06:48.555Z,3.17
2019-05-28T14:09:25.452Z,3.65
2019-05-28T14:15:00.714Z,2.95
2019-05-28T14:17:33.925Z,3.27
2019-05-28T14:20:07.959Z,3.98
2019-05-28T14:22:41.479Z,2.47
2019-05-28T14:25:20.275Z,3.30
2019-05-28T14:27:59.118Z,3.72
2019-05-28T14:30:38.193Z,3.70
2019-05-28T14:33:09.641Z,3.10
2019-05-28T14:35:42.009Z,2.77
2019-05-28T14:38:13.609Z,3.47
2019-05-28T14:40:45.866Z,5.35
2019-05-28T14:43:18.262Z,4.03
2019-05-28T14:45:50.352Z,3.50
2019-05-28T14:48:22.040Z,4.30
2019-05-28T14:50:53.895Z,3.72
2019-05-28T14:53:53.376Z,3.60
2019-05-28T14:56:33.778Z,4.40
2019-05-28T14:59:16.966Z,3.17
2019-05-28T15:01:52.943Z,6.42
2019-05-28T15:04:26.826Z,3.00
2019-05-28T15:07:02.023Z,3.62
2019-05-28T15:09:34.516Z,4.75
2019-05-28T15:12:06.649Z,4.22
2019-05-28T15:14:40.180Z,6.45
2019-05-28T15:17:12.184Z,12.10
2019-05-28T15:19:45.260Z,6.65
2019-05-28T15:22:17.964Z,5.08
2019-05-28T15:24:56.525Z,4.30
2019-05-28T15:28:20.156Z,2.75
2019-05-28T15:31:01.784Z,3.92
2019-05-28T15:33:35.546Z,2.85
2019-05-28T15:36:07.415Z,4.12
2019-05-28T15:38:39.365Z,3.60
2019-05-28T15:41:14.891Z,4.08
2019-05-28T15:47:32.566Z,5.25
2019-05-28T15:50:36.734Z,3.80
2019-05-28T15:53:59.166Z,6.33
2019-05-28T15:56:46.033Z,3.27
2019-05-28T15:59:18.501Z,3.95
2019-05-28T16:01:49.993Z,3.45
2019-05-28T16:04:21.675Z,3.65
2019-05-28T16:06:55.653Z,3.37
2019-05-28T16:09:32.183Z,3.60
2019-05-28T16:12:08.383Z,6.62
2019-05-28T16:14:41.335Z,3.75
2019-05-28T16:17:13.067Z,4.75
2019-05-28T16:20:15.612Z,6.60
2019-05-28T16:22:58.395Z,5.42
2019-05-28T16:25:31.464Z,7.65
2019-05-28T16:28:05.888Z,8.28
2019-05-28T16:30:49.208Z,6.60
2019-05-28T16:33:23.644Z,4.45
2019-05-28T16:35:55.893Z,8.08
2019-05-28T16:38:32.259Z,5.65
2019-05-28T16:41:04.323Z,4.97
2019-05-28T16:43:38.486Z,5.53
2019-05-28T16:46:14.644Z,6.30
2019-05-28T16:48:47.235Z,27.80
2019-05-28T16:51:24.408Z,15.68
2019-05-28T16:53:55.686Z,9.65
2019-05-28T16:56:27.612Z,12.90
2019-05-28T16:59:00.036Z,26.95
2019-05-28T17:01:30.970Z,43.92
2019-05-28T17:04:02.379Z,13.28
2019-05-28T17:06:38.064Z,22.60
2019-05-28T17:09:09.659Z,7.95
2019-05-28T17:11:42.225Z,8.53
2019-05-28T17:14:15.149Z,5.17
2019-05-28T17:16:47.721Z,4.00
2019-05-28T17:19:20.391Z,25.75
2019-05-28T17:21:53.915Z,6.72
2019-05-28T17:24:26.665Z,19.23
2019-05-28T17:26:58.889Z,11.73
2019-05-28T17:29:31.071Z,7.47
2019-05-28T17:32:03.449Z,6.72
2019-05-28T17:34:34.957Z,5.92
2019-05-28T17:37:06.751Z,7.42
2019-05-28T17:39:39.461Z,6.17
2019-05-28T17:42:12.011Z,3.92
2019-05-28T17:45:11.356Z,5.78
2019-05-28T17:47:44.561Z,4.62
2019-05-28T17:50:18.792Z,5.72
2019-05-28T17:52:51.593Z,4.40
2019-05-28T17:55:24.068Z,5.42
2019-05-28T17:57:56.024Z,4.85
2019-05-28T18:00:28.360Z,4.97
2019-05-28T18:03:13.321Z,4.08
2019-05-28T18:05:53.979Z,3.72
2019-05-28T18:08:24.887Z,4.40
2019-05-28T18:11:04.021Z,4.67
2019-05-28T18:13:28.799Z,9.23
2019-05-28T18:16:00.016Z,5.37
2019-05-28T18:22:24.122Z,5.72
2019-05-28T18:24:55.999Z,6.72
2019-05-28T18:27:58.680Z,6.03
2019-05-28T18:30:30.422Z,7.85
2019-05-28T18:33:02.942Z,8.60
2019-05-28T18:35:34.860Z,5.05
2019-05-28T18:38:06.387Z,5.33
2019-05-28T18:40:40.611Z,12.88
2019-05-28T18:43:15.844Z,9.20
2019-05-28T18:45:54.680Z,10.60
2019-05-28T18:48:27.594Z,10.30
2019-05-28T18:51:18.619Z,6.70
2019-05-28T18:53:53.488Z,6.72
2019-05-28T18:56:26.963Z,7.33
2019-05-28T18:59:27.709Z,6.92
2019-05-28T19:02:02.178Z,6.67
2019-05-28T19:04:34.168Z,7.58
2019-05-28T19:07:06.371Z,9.50
2019-05-28T19:09:57.583Z,9.98
2019-05-28T19:13:05.495Z,15.32
2019-05-28T19:16:08.783Z,13.55
2019-05-28T19:19:13.455Z,13.45
2019-05-28T19:22:37.611Z,8.45
2019-05-28T19:32:16.679Z,9.18
2019-05-28T19:35:07.783Z,6.20
2019-05-28T19:37:59.469Z,7.00
2019-05-28T19:41:03.853Z,7.12
2019-05-28T19:44:19.109Z,13.88
2019-05-28T19:50:25.845Z,11.48
2019-05-28T19:52:57.535Z,9.83
2019-05-28T19:55:35.762Z,14.07
2019-05-28T19:58:10.887Z,13.53
2019-05-28T20:00:42.131Z,9.73
2019-05-28T20:03:13.234Z,11.63
2019-05-28T20:05:44.293Z,16.80
2019-05-28T20:08:15.353Z,19.30
2019-05-28T20:11:04.978Z,17.62
2019-05-28T20:14:05.492Z,12.88
2019-05-28T20:16:45.126Z,15.53
2019-05-28T20:19:18.292Z,15.40
2019-05-28T20:21:51.891Z,11.97
2019-05-28T20:24:21.945Z,11.90
2019-05-28T20:26:54.245Z,8.03
2019-05-28T20:29:25.611Z,8.78
2019-05-28T20:32:14.900Z,7.17
2019-05-28T20:34:52.299Z,8.83
2019-05-28T20:37:33.836Z,9.55
2019-05-28T20:40:08.241Z,6.90
2019-05-28T20:42:40.953Z,8.38
2019-05-28T20:45:14.069Z,4.72
2019-05-28T20:47:46.103Z,6.35
2019-05-28T20:50:19.072Z,5.67
2019-05-28T20:52:56.026Z,8.68
2019-05-28T20:55:40.762Z,9.80
2019-05-28T20:58:11.880Z,9.73
2019-05-28T21:00:44.237Z,7.50
2019-05-28T21:03:15.472Z,7.95
2019-05-28T21:05:48.760Z,9.40
2019-05-28T21:08:21.205Z,9.80
2019-05-28T21:10:52.903Z,8.90
2019-05-28T21:13:24.158Z,7.45
2019-05-28T21:15:56.877Z,7.40
2019-05-28T21:18:28.427Z,9.08
2019-05-28T21:21:00.831Z,13.60
2019-05-28T21:23:32.984Z,7.72
2019-05-28T21:26:06.719Z,7.22
2019-05-28T21:28:37.746Z,8.95
2019-05-28T21:31:09.665Z,8.80
2019-05-28T21:33:41.797Z,8.23
2019-05-28T21:36:13.990Z,5.33
2019-05-28T21:38:47.328Z,6.97
2019-05-28T21:41:18.932Z,9.30
2019-05-28T21:43:51.745Z,6.87
2019-05-28T21:46:24.259Z,5.75
2019-05-28T21:48:56.559Z,6.95
2019-05-28T21:51:28.749Z,7.37
2019-05-28T21:54:01.509Z,6.12
2019-05-28T21:56:35.065Z,11.65
2019-05-28T21:59:07.372Z,7.75
2019-05-28T22:01:40.058Z,9.90
2019-05-28T22:04:12.528Z,8.55
2019-05-28T22:06:44.866Z,6.20
2019-05-28T22:09:17.513Z,6.58
2019-05-28T22:11:49.893Z,8.73
2019-05-28T22:14:21.316Z,6.35
2019-05-28T22:16:53.078Z,7.10
2019-05-28T22:19:25.074Z,6.55
2019-05-28T22:21:58.404Z,5.65
2019-05-28T22:24:30.062Z,11.25
2019-05-28T22:27:02.525Z,11.75
2019-05-28T22:29:34.093Z,9.30
2019-05-28T22:32:05.672Z,7.97
2019-05-28T22:34:38.610Z,8.50
2019-05-28T22:37:10.719Z,19.20
2019-05-28T22:39:42.969Z,7.00
2019-05-28T22:42:15.473Z,9.20
2019-05-28T22:44:47.542Z,5.58
2019-05-28T22:47:19.906Z,5.53
2019-05-28T22:49:52.222Z,8.68
2019-05-28T22:52:23.697Z,8.13
2019-05-28T22:54:54.934Z,8.08
2019-05-28T22:57:27.024Z,5.65
2019-05-28T23:00:00.334Z,12.20
2019-05-28T23:02:31.865Z,8.38
2019-05-28T23:05:03.735Z,11.63
2019-05-28T23:07:35.408Z,8.88
2019-05-28T23:10:07.848Z,9.80
2019-05-28T23:12:40.054Z,6.10
2019-05-28T23:15:12.137Z,10.58
2019-05-28T23:17:44.184Z,6.00
2019-05-28T23:20:16.727Z,9.15
2019-05-28T23:22:49.181Z,11.83
2019-05-28T23:25:20.984Z,8.55
2019-05-28T23:27:53.584Z,5.03
2019-05-28T23:30:25.807Z,7.15
2019-05-28T23:32:57.905Z,12.78
2019-05-28T23:35:31.059Z,6.17
2019-05-28T23:38:02.762Z,5.92
2019-05-28T23:40:34.941Z,4.87
2019-05-28T23:43:07.410Z,9.08
2019-05-28T23:45:39.341Z,8.70
2019-05-28T23:48:14.996Z,8.35
2019-05-28T23:50:44.978Z,4.12
2019-05-28T23:53:18.332Z,6.72
2019-05-28T23:55:50.124Z,5.55
2019-05-28T23:58:22.779Z,4.05
